Monday, July 23, 2018, 11:36 AM GMT
Back to Local

CYQI, Yarmouth, N. S.

Location: , , Canada Lat: 43.833
Local Time: 11:36 AM GMT (11:36 GMT) Lon: -66.083
Time Zone: GMT Elev: 141 ft

Show me the last for .
Show Decoded

2018-07-23 11:28 METAR CYQI 231128Z 18009KT 5/8SM BR FEW006 VV007 21/21 A3036 RMK ST1FG7 SLP282
                 DENSITY ALT 400FT =
2018-07-23 11:06 METAR CYQI 231106Z 18007G16KT 1/2SM FG VV002 20/20 A3036 RMK FG8 SLP282 DENSITY
                 ALT 300FT =
2018-07-23 11:00 METAR CYQI 231100Z 19012KT 1/4SM FG VV001 20/20 A3035 RMK FG8 SLP280 DENSITY ALT
                 300FT =
2018-07-23 10:50 METAR CYQI 231050Z 18011KT 3/8SM FG VV001 20/20 A3035 RMK FG8 SLP279 DENSITY ALT
                 300FT =
2018-07-23 10:43 METAR CYQI 231043Z 18010G15KT 1/2SM FG VV002 20/20 A3035 RMK FG8 SLP278 DENSITY
                 ALT 300FT =
2018-07-23 10:00 METAR CYQI 231000Z 18010KT 3/8SM FG VV001 20/20 A3035 RMK FG8 SLP278 DENSITY ALT
                 400FT =
2018-07-23 09:54 METAR CYQI 230954Z 17008KT 1/2SM FG OVC006 21/20 A3035 RMK FG7ST1 SLP279 DENSITY
                 ALT 400FT =
2018-07-23 09:00 METAR CYQI 230900Z 18010KT 1/4SM FG VV001 20/20 A3034 RMK FG8 SLP276 DENSITY ALT
                 300FT =
2018-07-23 08:00 METAR CYQI 230800Z 18010KT 3/8SM FG VV001 20/20 A3034 RMK FG8 SLP274 DENSITY ALT
                 300FT =
2018-07-23 07:03 METAR CYQI 230703Z 19011G16KT 3/8SM FG VV001 20/20 A3033 RMK FG8 SLP272 DENSITY
                 ALT 300FT =
2018-07-23 07:02 METAR CYQI 230702Z 18010G15KT 1/2SM FG VV001 20/20 A3033 RMK FG8 SLP272 DENSITY
                 ALT 300FT =
2018-07-23 07:00 METAR CYQI 230700Z 19010G15KT 3/4SM BR OVC005 20/20 A3033 RMK FG7ST1 SLP272
                 DENSITY ALT 300FT =
2018-07-23 06:00 METAR CYQI 230600Z 19011G17KT 1 1/4SM BR OVC006 20/20 A3033 RMK FG7ST1 SLP271
                 DENSITY ALT 300FT =
2018-07-23 05:00 METAR CYQI 230500Z 19012KT 1 1/4SM BR OVC003 21/20 A3033 RMK FG3ST5 SLP271
                 DENSITY ALT 400FT =
2018-07-23 04:05 METAR CYQI 230405Z 18012KT 1SM BR OVC006 20/20 A3034 RMK FG4ST4 SLP275 DENSITY
                 ALT 300FT =
2018-07-23 04:03 METAR CYQI 230403Z 18011G17KT 1 3/4SM BR BKN002 OVC006 20/20 A3034 RMK FG3SF2ST3
                 SLP274 DENSITY ALT 300FT =
2018-07-23 04:00 METAR CYQI 230400Z 18012G17KT 2 1/2SM BR SCT002 OVC006 20/20 A3034 RMK FG2SF2SC4
                 SLP274 DENSITY ALT 300FT =
2018-07-23 03:00 METAR CYQI 230300Z 19012G20KT 9SM FEW003 BKN039 21/20 A3034 RMK SF2SC5 SLP275
                 DENSITY ALT 400FT =
2018-07-23 02:00 METAR CYQI 230200Z 19011KT 9SM FEW004 SCT023 BKN033 21/20 A3034 RMK SF1SC2SC2
                 SLP275 DENSITY ALT 400FT =
2018-07-23 01:00 METAR CYQI 230100Z 18010G18KT 9SM FEW009 SCT041 BKN068 21/20 A3033 RMK SF1SC2AC3
                 SLP274 DENSITY ALT 400FT =
2018-07-23 00:00 METAR CYQI 230000Z 19013KT 9SM FEW032 OVC073 21/20 A3032 RMK SC1AC7 SLP267
                 DENSITY ALT 500FT =
2018-07-22 23:00 METAR CYQI 222300Z 19012G18KT 8SM FEW007 FEW024 OVC056 21/20 A3031 RMK SF1SC1SC7
                 SF TR SLP264 DENSITY ALT 500FT =
2018-07-22 22:00 METAR CYQI 222200Z 19017KT 8SM FEW007 BKN062 OVC250 23/21 A3029 RMK SF2SC5CI1
                 SLP259 DENSITY ALT 700FT =
2018-07-22 21:00 METAR CYQI 222100Z 19014G22KT 8SM FEW006 BKN056 OVC250 24/21 A3029 RMK SF2SC4CI2
                 SLP259 DENSITY ALT 800FT =
2018-07-22 20:00 METAR CYQI 222000Z 19015G22KT 6SM BR FEW007 SCT070 OVC250 25/22 A3028 RMK
                 SF2AC1CI5 CC ASSCTD SLP255 DENSITY ALT 900FT =
2018-07-22 19:00 METAR CYQI 221900Z 19018KT 6SM BR FEW006 SCT032 BKN064 OVC250 24/22 A3028 RMK
                 SF2SC1SC2CI3 CC ASSCTD SLP255 DENSITY ALT 900FT =
2018-07-22 18:00 METAR CYQI 221800Z 19015G21KT 6SM BR SCT006 BKN084 OVC250 25/22 A3028 RMK
                 SF3AC2CI3 SLP255 DENSITY ALT 900FT =
2018-07-22 17:50 METAR CYQI 221750Z 19014G22KT 5SM BR SCT003 BKN084 OVC250 24/22 A3028 RMK
                 SF3AC3CI2 SLP255 DENSITY ALT 900FT =
2018-07-22 17:32 METAR CYQI 221732Z 19016G22KT 5SM BR BKN005 OVC084 24/22 A3028 RMK SF5AC3 SLP255
                 DENSITY ALT 900FT =
2018-07-22 17:00 METAR CYQI 221700Z 19012G19KT 4SM BR OVC003 23/22 A3027 RMK SF8 SLP254 DENSITY
                 ALT 700FT =
2018-07-22 16:00 METAR CYQI 221600Z 18009KT 3SM BR BKN003 OVC013 22/21 A3027 RMK SF6SF2 SLP254
                 DENSITY ALT 700FT =
2018-07-22 15:40 METAR CYQI 221540Z 19008KT 5SM BR SCT003 BKN016 OVC040 23/22 A3027 RMK SF4SF3SC1
                 SLP254 DENSITY ALT 700FT =
2018-07-22 15:00 METAR CYQI 221500Z 19011KT 5SM BR BKN003 OVC038 21/21 A3027 RMK SF5SC3 SLP253
                 DENSITY ALT 500FT =
2018-07-22 14:29 METAR CYQI 221429Z 19012G18KT 5SM BR BKN003 OVC030 21/21 A3027 RMK SF7SC1 SLP252
                 DENSITY ALT 500FT =
2018-07-22 14:16 METAR CYQI 221416Z 19011G17KT 2SM BR OVC002 20/20 A3027 RMK FG2SF6 SLP251
                 DENSITY ALT 400FT =
2018-07-22 14:00 METAR CYQI 221400Z 18012KT 3/4SM BR OVC002 20/20 A3026 RMK FG6SF2 SLP249 DENSITY
                 ALT 400FT =
2018-07-22 13:28 METAR CYQI 221328Z 19013KT 3/4SM BR OVC001 19/19 A3025 RMK FG6SF2 SLP246 DENSITY
                 ALT 300FT =
2018-07-22 13:00 METAR CYQI 221300Z 20012KT 1SM BR OVC002 20/20 A3024 RMK FG4SF4 SLP242 DENSITY
                 ALT 400FT =
2018-07-22 12:22 METAR CYQI 221222Z 19014KT 1SM BR OVC002 20/20 A3023 RMK FG6SF2 SLP239 DENSITY
                 ALT 400FT =
2018-07-22 12:00 METAR CYQI 221200Z 19011G18KT 1/2SM FG OVC002 20/20 A3022 RMK FG7SF1 SLP236
                 DENSITY ALT 400FT =
2018-07-22 11:53 METAR CYQI 221153Z 19013G22KT 1/2SM FG OVC002 20/20 A3022 RMK FG6SF2 SLP235
                 DENSITY ALT 400FT =

Support USWX by starting your Amazon purchase here.